Time;durP1;ratioP1;P1;durP2;ratioP2;P2;SDS_P1;SDS_P2;PMS_P1;PMS_P2;Temp;Humidity;BMP_temperature;BMP_pressure;BME280_temperature;BME280_humidity;BME280_pressure;Samples;Min_cycle;Max_cycle;Signal;HPM_P1;HPM_P2
2022/06/23 00:00:47;;;;;;;;;8.00;8.00;;;;;;;;5098783;27;45398;-70
2022/06/23 00:03:17;;;;;;;;;10.67;7.33;;;;;;;;5097991;27;45453;-70
2022/06/23 00:05:42;;;;;;;;;8.00;6.00;;;;;;;;5098194;27;45323;-70
2022/06/23 00:08:09;;;;;;;;;6.67;5.33;;;;;;;;5098017;27;45253;-70
2022/06/23 00:10:40;;;;;;;;;7.33;7.33;;;;;;;;5098114;27;45277;-70
2022/06/23 00:13:12;;;;;;;;;9.33;8.67;;;;;;;;5098020;27;46053;-70
2022/06/23 00:15:40;;;;;;;;;8.00;7.33;;;;;;;;5098055;27;45484;-70
2022/06/23 00:18:06;;;;;;;;;11.33;9.00;;;;;;;;5098047;27;45245;-69
2022/06/23 00:20:31;;;;;;;;;7.00;7.00;;;;;;;;5098265;27;45433;-69
2022/06/23 00:23:12;;;;;;;;;10.33;9.33;;;;;;;;5097735;27;45836;-70
2022/06/23 00:26:03;;;;;;;;;10.67;9.33;;;;;;;;5097671;27;45322;-69
2022/06/23 00:28:58;;;;;;;;;12.33;6.67;;;;;;;;5096568;27;45481;-69
2022/06/23 00:31:36;;;;;;;;;8.00;8.00;;;;;;;;5092975;27;45373;-70
2022/06/23 00:34:03;;;;;;;;;13.67;13.67;;;;;;;;5097646;27;46554;-70
2022/06/23 00:36:28;;;;;;;;;14.33;10.67;;;;;;;;5097686;27;45290;-70
2022/06/23 00:38:54;;;;;;;;;11.33;9.67;;;;;;;;5097796;27;45397;-69
2022/06/23 00:41:22;;;;;;;;;9.00;9.00;;;;;;;;5097729;27;45358;-70
2022/06/23 00:43:48;;;;;;;;;13.67;10.33;;;;;;;;5097715;27;45427;-69
2022/06/23 00:46:49;;;;;;;;;12.67;10.00;;;;;;;;5097601;27;45315;-69
2022/06/23 00:49:20;;;;;;;;;11.33;10.00;;;;;;;;5075191;28;45452;-69
2022/06/23 00:51:47;;;;;;;;;14.00;11.00;;;;;;;;5075049;28;45352;-69
2022/06/23 00:54:20;;;;;;;;;9.67;9.67;;;;;;;;5074942;28;46022;-70
2022/06/23 00:56:58;;;;;;;;;12.67;10.33;;;;;;;;5074792;28;45382;-69
2022/06/23 00:59:27;;;;;;;;;13.33;13.33;;;;;;;;5077673;28;45538;-70
2022/06/23 01:01:52;;;;;;;;;9.33;9.33;;;;;;;;5077440;28;45396;-69
2022/06/23 01:04:22;;;;;;;;;11.33;10.67;;;;;;;;5078149;28;45340;-69
2022/06/23 01:07:13;;;;;;;;;11.67;9.00;;;;;;;;5078123;28;45429;-70
2022/06/23 01:09:48;;;;;;;;;12.00;9.67;;;;;;;;5062245;28;45436;-69
2022/06/23 01:12:22;;;;;;;;;11.00;11.00;;;;;;;;5078143;28;45451;-69
2022/06/23 01:15:14;;;;;;;;;14.67;10.67;;;;;;;;5077973;28;45332;-70
2022/06/23 01:18:11;;;;;;;;;13.67;12.33;;;;;;;;5062184;28;45556;-70
2022/06/23 01:20:55;;;;;;;;;14.33;14.33;;;;;;;;5037359;28;45420;-69
2022/06/23 01:23:32;;;;;;;;;14.00;12.00;;;;;;;;5037543;28;45401;-70
2022/06/23 01:26:09;;;;;;;;;14.67;13.33;;;;;;;;5037136;28;46681;-67
2022/06/23 01:28:38;;;;;;;;;13.33;11.00;;;;;;;;5037521;28;45310;-69
2022/06/23 01:31:19;;;;;;;;;12.33;11.00;;;;;;;;5037554;28;45372;-69
2022/06/23 01:33:56;;;;;;;;;15.33;11.67;;;;;;;;5037694;28;45437;-69
2022/06/23 01:36:21;;;;;;;;;11.00;11.00;;;;;;;;5037103;28;47001;-69
2022/06/23 01:39:02;;;;;;;;;10.33;9.00;;;;;;;;5037463;28;45401;-69
2022/06/23 01:41:27;;;;;;;;;15.33;8.67;;;;;;;;5037308;28;45233;-69
2022/06/23 01:43:59;;;;;;;;;12.33;11.00;;;;;;;;5037519;28;45471;-69
2022/06/23 01:46:37;;;;;;;;;11.00;11.00;;;;;;;;5037100;28;46577;-69
2022/06/23 01:49:02;;;;;;;;;10.00;10.00;;;;;;;;5037356;28;45330;-69
2022/06/23 01:51:28;;;;;;;;;11.67;11.67;;;;;;;;5037325;28;45282;-69
2022/06/23 01:53:54;;;;;;;;;8.33;8.33;;;;;;;;5037546;28;45547;-69
2022/06/23 01:56:20;;;;;;;;;17.33;11.00;;;;;;;;5071003;27;45502;-69
2022/06/23 01:58:49;;;;;;;;;10.00;10.00;;;;;;;;5099808;27;45396;-69
2022/06/23 02:01:17;;;;;;;;;12.67;10.67;;;;;;;;5100204;27;45238;-69
2022/06/23 02:03:44;;;;;;;;;15.00;8.33;;;;;;;;5100279;27;45258;-69
2022/06/23 02:06:18;;;;;;;;;8.33;7.33;;;;;;;;5099953;27;46318;-69
2022/06/23 02:08:49;;;;;;;;;11.00;9.67;;;;;;;;5099569;27;45453;-69
2022/06/23 02:11:17;;;;;;;;;8.67;8.67;;;;;;;;5099885;27;45313;-69
2022/06/23 02:13:47;;;;;;;;;11.00;9.67;;;;;;;;5100014;27;45303;-69
2022/06/23 02:16:31;;;;;;;;;11.00;10.67;;;;;;;;5099822;27;45368;-69
2022/06/23 02:19:00;;;;;;;;;9.67;9.33;;;;;;;;5099948;27;45502;-69
2022/06/23 02:21:31;;;;;;;;;10.00;10.00;;;;;;;;5099699;27;45435;-69
2022/06/23 02:23:57;;;;;;;;;12.67;9.00;;;;;;;;5099890;27;45307;-69
2022/06/23 02:26:42;;;;;;;;;8.33;8.00;;;;;;;;5099414;27;47130;-69
2022/06/23 02:29:07;;;;;;;;;8.33;8.33;;;;;;;;5099308;27;45367;-69
2022/06/23 02:31:39;;;;;;;;;7.33;7.33;;;;;;;;5099706;27;45286;-69
2022/06/23 02:34:22;;;;;;;;;7.33;7.33;;;;;;;;5099910;27;45557;-69
2022/06/23 02:37:00;;;;;;;;;10.00;8.00;;;;;;;;5099330;27;46257;-69
2022/06/23 02:39:37;;;;;;;;;8.33;7.00;;;;;;;;5099371;27;45465;-69
2022/06/23 02:42:05;;;;;;;;;6.33;6.33;;;;;;;;5099357;27;45833;-69
2022/06/23 02:44:39;;;;;;;;;8.00;7.00;;;;;;;;5099558;27;45272;-69
2022/06/23 02:47:23;;;;;;;;;7.67;7.00;;;;;;;;5099350;27;45263;-69
2022/06/23 02:49:57;;;;;;;;;10.33;9.33;;;;;;;;5099309;27;45368;-69
2022/06/23 02:52:22;;;;;;;;;10.33;8.00;;;;;;;;5099307;27;45315;-69
2022/06/23 02:55:02;;;;;;;;;8.00;8.00;;;;;;;;5099433;27;45362;-69
2022/06/23 02:57:34;;;;;;;;;11.00;7.67;;;;;;;;5099242;27;45639;-69
2022/06/23 03:00:02;;;;;;;;;9.67;8.00;;;;;;;;5098795;27;45359;-69
2022/06/23 03:02:37;;;;;;;;;6.00;6.00;;;;;;;;5099148;27;45239;-69
2022/06/23 03:05:02;;;;;;;;;8.00;8.00;;;;;;;;5099264;27;45223;-69
2022/06/23 03:07:27;;;;;;;;;5.67;5.00;;;;;;;;5099115;27;46064;-69
2022/06/23 03:09:59;;;;;;;;;11.00;10.33;;;;;;;;5098952;27;45464;-69
2022/06/23 03:12:47;;;;;;;;;11.00;11.00;;;;;;;;5099010;27;45222;-69
2022/06/23 03:15:21;;;;;;;;;10.33;10.33;;;;;;;;5076613;28;45371;-69
2022/06/23 03:17:49;;;;;;;;;10.00;9.00;;;;;;;;5076129;28;46456;-69
2022/06/23 03:20:38;;;;;;;;;11.00;8.00;;;;;;;;5075183;28;45523;-69
2022/06/23 03:23:38;;;;;;;;;9.00;9.00;;;;;;;;5076096;28;45387;-69
2022/06/23 03:26:14;;;;;;;;;7.33;6.00;;;;;;;;5035757;28;45249;-69
2022/06/23 03:28:43;;;;;;;;;9.00;8.00;;;;;;;;5035457;28;45957;-69
2022/06/23 03:31:17;;;;;;;;;7.00;7.00;;;;;;;;5035698;28;45478;-69
2022/06/23 03:33:48;;;;;;;;;8.67;7.67;;;;;;;;5035770;28;45455;-69
2022/06/23 03:36:19;;;;;;;;;7.33;7.00;;;;;;;;5035727;28;45532;-69
2022/06/23 03:41:37;;;;;;;;;9.00;9.00;;;;;;;;5035132;28;45341;-69
2022/06/23 03:44:15;;;;;;;;;11.33;11.33;;;;;;;;5035667;28;45377;-69
2022/06/23 03:46:45;;;;;;;;;7.33;7.33;;;;;;;;5035671;28;45381;-69
2022/06/23 03:49:13;;;;;;;;;8.00;8.00;;;;;;;;5035155;28;45575;-69
2022/06/23 03:51:41;;;;;;;;;5.00;5.00;;;;;;;;5035303;28;45460;-69
2022/06/23 03:54:14;;;;;;;;;11.67;8.33;;;;;;;;5035353;28;45309;-69
2022/06/23 03:56:48;;;;;;;;;10.00;8.33;;;;;;;;5035393;28;45472;-69
2022/06/23 03:59:19;;;;;;;;;10.33;10.33;;;;;;;;5044485;27;45436;-69
2022/06/23 04:01:50;;;;;;;;;8.33;8.00;;;;;;;;5098067;27;45413;-69
2022/06/23 04:04:17;;;;;;;;;10.33;8.33;;;;;;;;5098247;27;45286;-69
2022/06/23 04:06:47;;;;;;;;;24.33;20.67;;;;;;;;5098386;27;45324;-69
2022/06/23 04:09:15;;;;;;;;;9.67;7.00;;;;;;;;5098070;27;46543;-69
2022/06/23 04:11:58;;;;;;;;;6.00;5.00;;;;;;;;5097790;27;45460;-69
2022/06/23 04:14:23;;;;;;;;;9.00;8.00;;;;;;;;5098056;27;45388;-69
2022/06/23 04:16:52;;;;;;;;;8.33;6.67;;;;;;;;5098482;27;45325;-69
2022/06/23 04:19:29;;;;;;;;;9.00;9.00;;;;;;;;5097826;27;46274;-69
2022/06/23 04:22:01;;;;;;;;;8.67;8.00;;;;;;;;5097744;27;45440;-69
2022/06/23 04:24:27;;;;;;;;;12.00;8.67;;;;;;;;5097854;27;46041;-69
2022/06/23 04:26:54;;;;;;;;;8.00;6.33;;;;;;;;5098204;27;45549;-69
2022/06/23 04:29:26;;;;;;;;;13.00;9.00;;;;;;;;5097797;27;45611;-69
2022/06/23 04:32:10;;;;;;;;;10.00;9.00;;;;;;;;5098522;27;45406;-69
2022/06/23 04:34:41;;;;;;;;;12.00;11.33;;;;;;;;5101715;27;45337;-69
2022/06/23 04:37:13;;;;;;;;;9.00;9.00;;;;;;;;5101776;27;45532;-69
2022/06/23 04:39:40;;;;;;;;;8.67;8.33;;;;;;;;5101290;27;45700;-69
2022/06/23 04:42:07;;;;;;;;;9.33;8.00;;;;;;;;5101242;27;45357;-69
2022/06/23 04:44:33;;;;;;;;;13.00;9.33;;;;;;;;5101378;27;45346;-69
2022/06/23 04:47:02;;;;;;;;;9.67;8.33;;;;;;;;5101284;27;45248;-69
2022/06/23 04:49:27;;;;;;;;;38.00;19.67;;;;;;;;5101033;27;46778;-69
2022/06/23 04:51:58;;;;;;;;;13.00;10.67;;;;;;;;5101199;27;45344;-69
2022/06/23 04:54:26;;;;;;;;;10.00;10.00;;;;;;;;5101215;27;45704;-69
2022/06/23 04:56:57;;;;;;;;;12.67;12.67;;;;;;;;5101413;27;45305;-69
2022/06/23 04:59:28;;;;;;;;;14.00;13.00;;;;;;;;5100654;27;45347;-69
2022/06/23 05:01:56;;;;;;;;;12.67;12.00;;;;;;;;5100728;27;45324;-69
2022/06/23 05:04:31;;;;;;;;;7.67;7.67;;;;;;;;5101143;27;45253;-69
2022/06/23 05:06:59;;;;;;;;;12.00;12.00;;;;;;;;5101128;27;45357;-69
2022/06/23 05:09:28;;;;;;;;;11.67;10.00;;;;;;;;5100296;27;46871;-69
2022/06/23 05:11:59;;;;;;;;;15.00;13.00;;;;;;;;5100585;27;45360;-69
2022/06/23 05:14:57;;;;;;;;;10.67;9.00;;;;;;;;5100767;27;45267;-68
2022/06/23 05:17:25;;;;;;;;;10.33;9.33;;;;;;;;5078458;28;45477;-69
2022/06/23 05:19:55;;;;;;;;;14.00;12.33;;;;;;;;5077832;28;46564;-69
2022/06/23 05:22:26;;;;;;;;;9.33;9.33;;;;;;;;5077879;28;45463;-69
2022/06/23 05:24:53;;;;;;;;;15.00;13.33;;;;;;;;5078341;28;45454;-68
2022/06/23 05:27:27;;;;;;;;;19.33;18.33;;;;;;;;5077322;28;45817;-68
2022/06/23 05:29:52;;;;;;;;;15.00;14.33;;;;;;;;5077294;28;45857;-68
2022/06/23 05:32:40;;;;;;;;;13.33;13.33;;;;;;;;5077670;28;45377;-68
2022/06/23 05:35:16;;;;;;;;;16.67;15.00;;;;;;;;5037569;28;45324;-68
2022/06/23 05:37:49;;;;;;;;;13.67;11.00;;;;;;;;5037522;28;45631;-68
2022/06/23 05:40:25;;;;;;;;;14.67;13.33;;;;;;;;5036686;28;45521;-68
2022/06/23 05:42:54;;;;;;;;;16.67;14.33;;;;;;;;5037055;28;45368;-68
2022/06/23 05:45:22;;;;;;;;;15.00;14.67;;;;;;;;5036684;28;45512;-68
2022/06/23 05:47:47;;;;;;;;;15.67;15.33;;;;;;;;5037289;28;45413;-68
2022/06/23 05:50:16;;;;;;;;;15.67;15.33;;;;;;;;5037168;28;46453;-68
2022/06/23 05:53:03;;;;;;;;;18.33;16.67;;;;;;;;5036994;28;45331;-68
2022/06/23 05:55:41;;;;;;;;;20.00;16.67;;;;;;;;5037255;28;45352;-68
2022/06/23 05:58:24;;;;;;;;;10.67;9.67;;;;;;;;5036767;28;45832;-68
2022/06/23 06:00:53;;;;;;;;;18.33;16.67;;;;;;;;5036607;28;45572;-68
2022/06/23 06:03:19;;;;;;;;;19.33;18.33;;;;;;;;5036856;28;45424;-68
2022/06/23 06:05:47;;;;;;;;;26.33;21.00;;;;;;;;5037031;28;45266;-68
2022/06/23 06:08:22;;;;;;;;;20.33;20.33;;;;;;;;5037215;28;45469;-68
2022/06/23 06:10:48;;;;;;;;;23.67;21.33;;;;;;;;5036799;28;45463;-68
2022/06/23 06:13:17;;;;;;;;;25.67;24.33;;;;;;;;5096676;27;45379;-68
2022/06/23 06:15:46;;;;;;;;;33.00;28.33;;;;;;;;5099851;27;45354;-68
2022/06/23 06:18:19;;;;;;;;;22.33;19.00;;;;;;;;5100201;27;45429;-68
2022/06/23 06:20:45;;;;;;;;;23.33;18.67;;;;;;;;5099479;27;45573;-68
2022/06/23 06:23:16;;;;;;;;;24.67;20.00;;;;;;;;5099464;27;45247;-68
2022/06/23 06:25:44;;;;;;;;;28.00;20.33;;;;;;;;5099953;27;45298;-68
2022/06/23 06:28:15;;;;;;;;;25.00;21.33;;;;;;;;5099704;27;45230;-68
2022/06/23 06:30:44;;;;;;;;;21.33;19.67;;;;;;;;5099178;27;45441;-69
2022/06/23 06:33:19;;;;;;;;;18.33;17.33;;;;;;;;5099650;27;45346;-68
2022/06/23 06:35:52;;;;;;;;;15.67;14.33;;;;;;;;5099831;27;45395;-68
2022/06/23 06:38:17;;;;;;;;;14.00;14.00;;;;;;;;5099647;27;45375;-68
2022/06/23 06:40:44;;;;;;;;;17.00;16.00;;;;;;;;5099273;27;45486;-68
2022/06/23 06:43:14;;;;;;;;;18.33;18.00;;;;;;;;5099380;27;45173;-69
2022/06/23 06:45:40;;;;;;;;;21.67;20.67;;;;;;;;5099330;27;45431;-68
2022/06/23 06:48:18;;;;;;;;;21.00;18.67;;;;;;;;5099609;27;45283;-68
2022/06/23 06:50:45;;;;;;;;;17.67;17.67;;;;;;;;5099200;27;45300;-69
2022/06/23 06:53:29;;;;;;;;;18.33;17.33;;;;;;;;5099198;27;45332;-67
2022/06/23 06:56:17;;;;;;;;;21.00;19.00;;;;;;;;5099397;27;45302;-68
2022/06/23 06:58:43;;;;;;;;;16.00;15.00;;;;;;;;5076145;28;45380;-68
2022/06/23 07:01:21;;;;;;;;;22.33;20.33;;;;;;;;5076309;28;46246;-69
2022/06/23 07:03:48;;;;;;;;;25.67;21.00;;;;;;;;5076531;28;45361;-69
2022/06/23 07:06:36;;;;;;;;;22.33;18.67;;;;;;;;5076421;28;45356;-68
2022/06/23 07:09:04;;;;;;;;;23.67;20.67;;;;;;;;5075859;28;45438;-69
2022/06/23 07:11:30;;;;;;;;;19.00;18.00;;;;;;;;5076155;28;46277;-69
2022/06/23 07:14:01;;;;;;;;;20.33;18.33;;;;;;;;5075996;28;45487;-69
2022/06/23 07:16:38;;;;;;;;;21.33;21.00;;;;;;;;5076346;28;45465;-69
2022/06/23 07:19:03;;;;;;;;;20.00;17.00;;;;;;;;5076433;28;45402;-69
2022/06/23 07:21:34;;;;;;;;;24.00;19.33;;;;;;;;5075990;28;45423;-69
2022/06/23 07:24:11;;;;;;;;;20.67;16.33;;;;;;;;5076046;28;45608;-69
2022/06/23 07:26:45;;;;;;;;;22.67;19.33;;;;;;;;5075999;28;45277;-69
2022/06/23 07:29:13;;;;;;;;;30.00;22.67;;;;;;;;5075884;28;45455;-67
2022/06/23 07:31:43;;;;;;;;;22.33;21.33;;;;;;;;5075747;28;46591;-68
2022/06/23 07:34:10;;;;;;;;;26.33;21.00;;;;;;;;5075791;28;45343;-69
2022/06/23 07:36:38;;;;;;;;;22.00;21.67;;;;;;;;5095418;27;45349;-69
2022/06/23 07:39:04;;;;;;;;;22.33;20.33;;;;;;;;5098663;27;45295;-69
2022/06/23 07:41:34;;;;;;;;;19.33;18.67;;;;;;;;5098165;27;45366;-69
2022/06/23 07:44:08;;;;;;;;;20.00;17.67;;;;;;;;5098399;27;45370;-68
2022/06/23 07:46:35;;;;;;;;;22.67;21.00;;;;;;;;5098482;27;45360;-68
2022/06/23 07:49:00;;;;;;;;;20.00;20.00;;;;;;;;5098404;27;45328;-69
2022/06/23 07:51:26;;;;;;;;;23.67;20.67;;;;;;;;5098208;27;46093;-69
2022/06/23 07:53:52;;;;;;;;;23.00;22.00;;;;;;;;5098268;27;45227;-69
2022/06/23 07:56:19;;;;;;;;;28.33;26.00;;;;;;;;5097184;27;45206;-68
2022/06/23 07:58:46;;;;;;;;;28.00;24.33;;;;;;;;5098181;27;45450;-69
2022/06/23 08:01:11;;;;;;;;;23.33;20.33;;;;;;;;5097946;27;46153;-69
2022/06/23 08:03:41;;;;;;;;;19.67;18.67;;;;;;;;5098070;27;45431;-69
2022/06/23 08:06:10;;;;;;;;;23.67;23.67;;;;;;;;5098229;27;45480;-68
2022/06/23 08:08:38;;;;;;;;;28.67;24.00;;;;;;;;5097128;27;45435;-68
2022/06/23 08:13:51;;;;;;;;;24.33;24.33;;;;;;;;5097679;27;45338;-69
2022/06/23 08:19:10;;;;;;;;;42.33;34.67;;;;;;;;5118635;27;45231;-69
2022/06/23 08:21:39;;;;;;;;;23.67;21.67;;;;;;;;5117104;27;45923;-69
2022/06/23 08:24:10;;;;;;;;;29.67;28.00;;;;;;;;5117765;27;45447;-69
2022/06/23 08:26:36;;;;;;;;;24.67;22.33;;;;;;;;5117855;27;45639;-68
2022/06/23 08:29:03;;;;;;;;;25.33;25.33;;;;;;;;5117853;27;45364;-69
2022/06/23 08:31:29;;;;;;;;;26.33;25.67;;;;;;;;5116970;27;45595;-69
2022/06/23 08:33:55;;;;;;;;;28.00;23.67;;;;;;;;5117293;27;45713;-68
2022/06/23 08:36:23;;;;;;;;;33.00;28.33;;;;;;;;5118105;27;45401;-68
2022/06/23 08:38:56;;;;;;;;;27.33;25.67;;;;;;;;5117497;27;45402;-68
2022/06/23 08:41:30;;;;;;;;;28.33;26.67;;;;;;;;5114520;27;46223;-68
2022/06/23 08:44:04;;;;;;;;;25.00;22.67;;;;;;;;5116934;27;45543;-68
2022/06/23 08:46:48;;;;;;;;;24.00;24.00;;;;;;;;5117509;27;45314;-67
2022/06/23 08:49:34;;;;;;;;;22.00;20.33;;;;;;;;5114989;27;45260;-70
2022/06/23 08:52:10;;;;;;;;;27.67;23.67;;;;;;;;5115263;27;45253;-69
2022/06/23 08:54:50;;;;;;;;;27.00;25.67;;;;;;;;5115095;27;45431;-68
2022/06/23 08:57:19;;;;;;;;;20.00;19.33;;;;;;;;5117980;27;45310;-68
2022/06/23 08:59:54;;;;;;;;;27.67;23.33;;;;;;;;5118121;27;45615;-68
2022/06/23 09:02:42;;;;;;;;;21.33;21.00;;;;;;;;5117899;27;45338;-68
2022/06/23 09:05:14;;;;;;;;;20.00;17.33;;;;;;;;5117137;27;45456;-69
2022/06/23 09:07:49;;;;;;;;;17.33;15.67;;;;;;;;5117315;27;45483;-70
2022/06/23 09:10:34;;;;;;;;;22.00;22.00;;;;;;;;5115451;27;45314;-68
2022/06/23 09:13:07;;;;;;;;;21.00;19.00;;;;;;;;5117600;27;45345;-67
2022/06/23 09:15:45;;;;;;;;;19.67;18.33;;;;;;;;5117899;27;45247;-67
2022/06/23 09:18:29;;;;;;;;;17.33;16.67;;;;;;;;5117484;27;45388;-67
2022/06/23 09:21:12;;;;;;;;;10.00;10.00;;;;;;;;5121150;27;45343;-68
2022/06/23 09:23:43;;;;;;;;;19.33;17.00;;;;;;;;5119458;27;45253;-69
2022/06/23 09:26:17;;;;;;;;;17.33;16.00;;;;;;;;5121165;27;45410;-68
2022/06/23 09:28:50;;;;;;;;;13.00;11.67;;;;;;;;5120883;27;45479;-68
2022/06/23 09:31:15;;;;;;;;;17.33;14.33;;;;;;;;5100886;27;45303;-68
2022/06/23 09:34:01;;;;;;;;;16.33;16.33;;;;;;;;5099771;27;46215;-69
2022/06/23 09:36:50;;;;;;;;;15.00;15.00;;;;;;;;5100552;27;45294;-68
2022/06/23 09:39:15;;;;;;;;;18.67;18.00;;;;;;;;5057342;28;45407;-68
2022/06/23 09:41:52;;;;;;;;;19.33;15.67;;;;;;;;5057481;28;45451;-68
2022/06/23 09:44:18;;;;;;;;;17.33;17.33;;;;;;;;5056303;28;45490;-67
2022/06/23 09:46:49;;;;;;;;;22.00;21.00;;;;;;;;5056484;28;45504;-67
2022/06/23 09:49:20;;;;;;;;;21.67;20.00;;;;;;;;5057540;28;45400;-67
2022/06/23 09:51:53;;;;;;;;;27.33;24.00;;;;;;;;5056910;28;45564;-67
2022/06/23 09:54:21;;;;;;;;;23.33;23.33;;;;;;;;5056262;28;45220;-68
2022/06/23 09:57:03;;;;;;;;;22.33;21.67;;;;;;;;5056343;28;45489;-67
2022/06/23 09:59:35;;;;;;;;;25.00;21.00;;;;;;;;5056287;28;45590;-68
2022/06/23 10:02:06;;;;;;;;;23.75;21.50;;;;;;;;5056460;28;45408;-68
2022/06/23 10:04:43;;;;;;;;;28.25;24.75;;;;;;;;5055954;28;46369;-68
2022/06/23 10:07:23;;;;;;;;;21.67;18.67;;;;;;;;5056241;28;45496;-68
2022/06/23 10:09:56;;;;;;;;;24.00;20.50;;;;;;;;5056284;28;45558;-68
2022/06/23 10:12:41;;;;;;;;;19.75;19.75;;;;;;;;5056982;28;45360;-69
2022/06/23 10:15:11;;;;;;;;;20.00;20.00;;;;;;;;5057789;27;46507;-68
2022/06/23 10:17:39;;;;;;;;;22.25;19.50;;;;;;;;5099654;27;45537;-69
2022/06/23 10:20:20;;;;;;;;;22.25;20.75;;;;;;;;5105152;27;45446;-69
2022/06/23 10:23:09;;;;;;;;;20.67;19.00;;;;;;;;5120684;27;45601;-69
2022/06/23 10:25:55;;;;;;;;;24.00;22.67;;;;;;;;5119509;27;45415;-69
2022/06/23 10:28:31;;;;;;;;;26.67;25.00;;;;;;;;5112058;27;45522;-65
2022/06/23 10:31:09;;;;;;;;;21.33;19.00;;;;;;;;5116666;27;45249;-68
2022/06/23 10:33:37;;;;;;;;;21.33;20.00;;;;;;;;5116833;27;45203;-70
2022/06/23 10:36:05;;;;;;;;;20.67;19.33;;;;;;;;5119341;27;45428;-70
2022/06/23 10:38:49;;;;;;;;;23.33;21.00;;;;;;;;5119286;27;45235;-70
2022/06/23 10:41:32;;;;;;;;;26.67;22.67;;;;;;;;5116497;27;45342;-69
2022/06/23 10:44:07;;;;;;;;;24.00;21.00;;;;;;;;5117046;27;45323;-68
2022/06/23 10:46:51;;;;;;;;;24.33;22.00;;;;;;;;5119357;27;46155;-69
2022/06/23 10:49:16;;;;;;;;;12.67;12.67;;;;;;;;5119950;27;45359;-69
2022/06/23 10:51:54;;;;;;;;;13.33;12.33;;;;;;;;5119808;27;45529;-70
2022/06/23 10:54:38;;;;;;;;;11.33;10.00;;;;;;;;5119851;27;45482;-70
2022/06/23 10:57:24;;;;;;;;;8.67;7.67;;;;;;;;5119624;27;45397;-70
2022/06/23 11:00:01;;;;;;;;;9.33;9.33;;;;;;;;5119399;27;45458;-70
2022/06/23 11:02:46;;;;;;;;;11.33;10.00;;;;;;;;5119585;27;45285;-71
2022/06/23 11:05:11;;;;;;;;;9.33;9.33;;;;;;;;5119927;27;45483;-70
2022/06/23 11:07:39;;;;;;;;;9.33;7.00;;;;;;;;5118755;27;45330;-70
2022/06/23 11:10:23;;;;;;;;;11.67;10.33;;;;;;;;5118893;27;46282;-70
2022/06/23 11:13:07;;;;;;;;;12.00;9.00;;;;;;;;5117214;27;45223;-70
2022/06/23 11:15:44;;;;;;;;;12.33;10.33;;;;;;;;5117671;27;45208;-69
2022/06/23 11:18:21;;;;;;;;;13.33;10.67;;;;;;;;5117031;27;46244;-70
2022/06/23 11:20:58;;;;;;;;;14.00;11.00;;;;;;;;5116344;27;45464;-68
2022/06/23 11:23:42;;;;;;;;;10.67;10.67;;;;;;;;5116525;27;45390;-69
2022/06/23 11:26:07;;;;;;;;;14.33;12.33;;;;;;;;5119510;27;45318;-70
2022/06/23 11:28:39;;;;;;;;;10.33;10.33;;;;;;;;5118356;27;46730;-69
2022/06/23 11:31:04;;;;;;;;;10.33;9.67;;;;;;;;5118994;27;45567;-69
2022/06/23 11:33:48;;;;;;;;;9.33;9.33;;;;;;;;5118793;27;45369;-69
2022/06/23 11:36:26;;;;;;;;;9.00;9.00;;;;;;;;5119558;27;45331;-69
2022/06/23 11:38:51;;;;;;;;;10.33;8.33;;;;;;;;5118965;27;46663;-69
2022/06/23 11:41:22;;;;;;;;;9.33;9.33;;;;;;;;5117152;27;45394;-69
2022/06/23 11:43:53;;;;;;;;;9.00;9.00;;;;;;;;5118897;27;45206;-70
2022/06/23 11:46:21;;;;;;;;;13.00;11.33;;;;;;;;5119227;27;45374;-69
2022/06/23 11:49:04;;;;;;;;;8.67;8.67;;;;;;;;5117631;27;48329;-70
2022/06/23 11:51:40;;;;;;;;;7.67;7.67;;;;;;;;5119038;27;45307;-69
2022/06/23 11:54:05;;;;;;;;;8.33;7.00;;;;;;;;5119011;27;45314;-68
2022/06/23 11:56:40;;;;;;;;;6.33;6.33;;;;;;;;5119006;27;45500;-70
2022/06/23 11:59:14;;;;;;;;;7.00;7.00;;;;;;;;5118415;27;46734;-70
2022/06/23 12:01:39;;;;;;;;;8.00;8.00;;;;;;;;5118873;27;45445;-68
2022/06/23 12:04:11;;;;;;;;;5.33;5.33;;;;;;;;5118968;27;45296;-69
2022/06/23 12:06:40;;;;;;;;;7.67;6.33;;;;;;;;5119025;27;45360;-69
2022/06/23 12:09:11;;;;;;;;;8.00;6.00;;;;;;;;5118733;27;45312;-69
2022/06/23 12:11:37;;;;;;;;;6.00;6.00;;;;;;;;5118663;27;45386;-69
2022/06/23 12:14:03;;;;;;;;;7.00;6.33;;;;;;;;5118873;27;45236;-70
2022/06/23 12:16:29;;;;;;;;;6.00;6.00;;;;;;;;5119031;27;45425;-69
2022/06/23 12:19:03;;;;;;;;;8.33;6.67;;;;;;;;5118464;27;46094;-69
2022/06/23 12:21:44;;;;;;;;;6.67;5.00;;;;;;;;5118597;27;45337;-69
2022/06/23 12:24:27;;;;;;;;;5.33;4.33;;;;;;;;5118923;27;45323;-69
2022/06/23 12:27:11;;;;;;;;;6.00;4.00;;;;;;;;5118859;27;45351;-69
2022/06/23 12:29:45;;;;;;;;;8.67;5.67;;;;;;;;5116889;27;46489;-70
2022/06/23 12:32:13;;;;;;;;;7.00;5.67;;;;;;;;5118374;27;45379;-70
2022/06/23 12:34:45;;;;;;;;;7.00;6.00;;;;;;;;5118517;27;45260;-68
2022/06/23 12:37:32;;;;;;;;;7.33;6.33;;;;;;;;5118598;27;45381;-70
2022/06/23 12:40:02;;;;;;;;;9.00;7.00;;;;;;;;5118322;27;45272;-69
2022/06/23 12:42:36;;;;;;;;;7.00;6.67;;;;;;;;5118209;27;45289;-70
2022/06/23 12:45:30;;;;;;;;;8.33;8.00;;;;;;;;5118141;27;45629;-70
2022/06/23 12:48:01;;;;;;;;;6.67;5.67;;;;;;;;5118463;27;45370;-69
2022/06/23 12:50:43;;;;;;;;;5.33;5.33;;;;;;;;5118202;27;46249;-69
2022/06/23 12:53:11;;;;;;;;;7.33;6.00;;;;;;;;5119456;27;45294;-69
2022/06/23 12:55:42;;;;;;;;;8.00;6.33;;;;;;;;5121915;27;45406;-70
2022/06/23 12:58:20;;;;;;;;;7.33;5.33;;;;;;;;5121741;27;45372;-68
2022/06/23 13:00:51;;;;;;;;;6.67;6.00;;;;;;;;5121502;27;46097;-69
2022/06/23 13:03:19;;;;;;;;;6.00;6.00;;;;;;;;5121702;27;45387;-69
2022/06/23 13:05:49;;;;;;;;;6.33;5.33;;;;;;;;5121729;27;45319;-70
2022/06/23 13:08:44;;;;;;;;;12.00;7.33;;;;;;;;5121913;27;45288;-70
2022/06/23 13:11:14;;;;;;;;;4.67;4.67;;;;;;;;5098345;27;46584;-70
2022/06/23 13:13:44;;;;;;;;;6.00;6.00;;;;;;;;5098769;27;45301;-69
2022/06/23 13:16:24;;;;;;;;;16.33;15.00;;;;;;;;5098726;27;45410;-70
2022/06/23 13:18:57;;;;;;;;;6.67;6.67;;;;;;;;5098817;27;45437;-69
2022/06/23 13:21:26;;;;;;;;;5.67;5.33;;;;;;;;5098211;27;46524;-70
2022/06/23 13:23:51;;;;;;;;;5.00;5.00;;;;;;;;5098673;27;45518;-69
2022/06/23 13:26:24;;;;;;;;;4.00;4.00;;;;;;;;5098521;27;45469;-69
2022/06/23 13:28:58;;;;;;;;;5.00;5.00;;;;;;;;5098708;27;45511;-70
2022/06/23 13:31:37;;;;;;;;;7.00;6.00;;;;;;;;5098463;27;46253;-69
2022/06/23 13:34:13;;;;;;;;;6.33;6.33;;;;;;;;5098222;27;45510;-70
2022/06/23 13:36:42;;;;;;;;;3.00;3.00;;;;;;;;5098464;27;45338;-69
2022/06/23 13:39:21;;;;;;;;;7.00;4.00;;;;;;;;5098468;27;45357;-69
2022/06/23 13:41:52;;;;;;;;;3.67;3.67;;;;;;;;5098214;27;45362;-69
2022/06/23 13:44:26;;;;;;;;;2.00;2.00;;;;;;;;5098016;27;45463;-69
2022/06/23 13:47:01;;;;;;;;;5.00;5.00;;;;;;;;5103026;27;45459;-69
2022/06/23 13:49:29;;;;;;;;;6.33;3.00;;;;;;;;5121075;27;45395;-69
2022/06/23 13:51:59;;;;;;;;;3.00;3.00;;;;;;;;5121121;27;45349;-70
2022/06/23 13:54:24;;;;;;;;;3.00;3.00;;;;;;;;5120876;27;45272;-70
2022/06/23 13:56:58;;;;;;;;;3.00;3.00;;;;;;;;5121014;27;45355;-70
2022/06/23 13:59:26;;;;;;;;;4.00;3.00;;;;;;;;5120923;27;45294;-69
2022/06/23 14:01:54;;;;;;;;;9.00;6.00;;;;;;;;5120565;27;45442;-69
2022/06/23 14:04:23;;;;;;;;;2.67;2.67;;;;;;;;5120243;27;45273;-69
2022/06/23 14:06:51;;;;;;;;;3.00;2.00;;;;;;;;5120784;27;45278;-69
2022/06/23 14:09:16;;;;;;;;;2.67;2.67;;;;;;;;5120917;27;45386;-68
2022/06/23 14:11:44;;;;;;;;;4.00;4.00;;;;;;;;5120494;27;46579;-70
2022/06/23 14:14:12;;;;;;;;;3.00;3.00;;;;;;;;5120420;27;45310;-70
2022/06/23 14:16:59;;;;;;;;;4.00;4.00;;;;;;;;5120648;27;45161;-70
2022/06/23 14:19:30;;;;;;;;;5.33;3.67;;;;;;;;5120764;27;45154;-69
2022/06/23 14:21:56;;;;;;;;;3.67;3.67;;;;;;;;5120275;27;46141;-70
2022/06/23 14:24:28;;;;;;;;;2.00;2.00;;;;;;;;5120337;27;45225;-76
2022/06/23 14:26:56;;;;;;;;;3.00;3.00;;;;;;;;5120509;27;45268;-68
2022/06/23 14:29:24;;;;;;;;;4.33;3.00;;;;;;;;5120675;27;45518;-70
2022/06/23 14:31:53;;;;;;;;;3.00;3.00;;;;;;;;5120230;27;46661;-67
2022/06/23 14:34:28;;;;;;;;;4.67;3.00;;;;;;;;5120095;27;45371;-71
2022/06/23 14:36:57;;;;;;;;;4.67;4.00;;;;;;;;5120394;27;45317;-69
2022/06/23 14:39:31;;;;;;;;;3.00;3.00;;;;;;;;5120387;27;45394;-69
2022/06/23 14:42:02;;;;;;;;;3.67;3.67;;;;;;;;5119986;27;45371;-70
2022/06/23 14:44:43;;;;;;;;;2.67;2.67;;;;;;;;5120004;27;45340;-69
2022/06/23 14:47:14;;;;;;;;;8.00;5.00;;;;;;;;5120110;27;45212;-69
2022/06/23 14:49:58;;;;;;;;;3.67;2.33;;;;;;;;5118978;27;45443;-68
2022/06/23 14:52:42;;;;;;;;;2.00;2.00;;;;;;;;5119724;27;45409;-70
2022/06/23 14:55:26;;;;;;;;;8.67;7.33;;;;;;;;5119899;27;45449;-69
2022/06/23 14:57:54;;;;;;;;;5.00;5.00;;;;;;;;5119922;27;45420;-69
2022/06/23 15:00:25;;;;;;;;;4.00;4.00;;;;;;;;5119627;27;45414;-69
2022/06/23 15:03:09;;;;;;;;;3.33;3.33;;;;;;;;5119675;27;46207;-69
2022/06/23 15:05:48;;;;;;;;;6.33;4.67;;;;;;;;5119869;27;45255;-69
2022/06/23 15:08:13;;;;;;;;;7.00;4.67;;;;;;;;5119855;27;45403;-70
2022/06/23 15:10:51;;;;;;;;;6.00;4.00;;;;;;;;5119774;27;45248;-69